createdAt,value
2019-02-25T00:03:59.231Z,69.70
2019-02-25T00:06:46.942Z,69.70
2019-02-25T00:09:35.577Z,69.70
2019-02-25T00:12:24.044Z,69.60
2019-02-25T00:15:12.497Z,69.60
2019-02-25T00:18:00.930Z,69.70
2019-02-25T00:20:49.116Z,69.60
2019-02-25T00:23:37.256Z,69.70
2019-02-25T00:26:25.523Z,69.70
2019-02-25T00:29:13.459Z,69.60
2019-02-25T00:32:01.337Z,69.60
2019-02-25T00:34:49.265Z,69.60
2019-02-25T00:37:37.559Z,69.70
2019-02-25T00:40:27.517Z,69.80
2019-02-25T00:43:14.865Z,69.70
2019-02-25T00:46:03.800Z,69.80
2019-02-25T00:48:51.764Z,69.80
2019-02-25T00:51:39.744Z,69.70
2019-02-25T00:54:28.327Z,69.80
2019-02-25T00:57:16.841Z,69.90
2019-02-25T01:00:04.956Z,69.60
2019-02-25T01:02:53.470Z,69.80
2019-02-25T01:05:41.379Z,69.80
2019-02-25T01:08:30.072Z,69.80
2019-02-25T01:11:17.967Z,69.80
2019-02-25T01:14:05.850Z,69.60
2019-02-25T01:16:53.745Z,69.80
2019-02-25T01:19:41.715Z,69.80
2019-02-25T01:22:29.754Z,69.90
2019-02-25T01:25:17.617Z,69.90
2019-02-25T01:28:05.472Z,69.80
2019-02-25T01:30:54.122Z,69.90
2019-02-25T01:33:42.219Z,69.90
2019-02-25T01:36:30.108Z,69.90
2019-02-25T01:39:18.265Z,69.80
2019-02-25T01:42:06.224Z,69.90
2019-02-25T01:44:54.613Z,69.90
2019-02-25T01:47:42.798Z,69.90
2019-02-25T01:50:30.996Z,69.80
2019-02-25T01:53:19.290Z,69.90
2019-02-25T01:56:07.303Z,69.70
2019-02-25T01:58:55.265Z,69.70
2019-02-25T02:01:43.130Z,69.70
2019-02-25T02:04:31.839Z,69.90
2019-02-25T02:07:19.705Z,69.90
2019-02-25T02:10:07.598Z,69.90
2019-02-25T02:12:55.783Z,70.00
2019-02-25T02:15:44.015Z,69.80
2019-02-25T02:18:32.297Z,70.00
2019-02-25T02:21:20.991Z,70.00
2019-02-25T02:24:09.035Z,70.00
2019-02-25T02:26:57.182Z,69.90
2019-02-25T02:29:45.460Z,70.00
2019-02-25T02:32:33.753Z,70.00
2019-02-25T02:35:21.813Z,70.10
2019-02-25T02:38:10.183Z,70.10
2019-02-25T02:40:58.692Z,70.10
2019-02-25T02:43:46.770Z,69.90
2019-02-25T02:46:35.157Z,70.10
2019-02-25T02:49:23.090Z,70.00
2019-02-25T02:52:10.998Z,70.10
2019-02-25T02:54:58.961Z,70.10
2019-02-25T02:57:46.940Z,70.10
2019-02-25T03:00:35.229Z,70.10
2019-02-25T03:03:23.405Z,70.10
2019-02-25T03:06:11.538Z,70.00
2019-02-25T03:08:59.938Z,70.10
2019-02-25T03:11:48.722Z,70.10
2019-02-25T03:14:37.263Z,70.10
2019-02-25T03:20:11.367Z,70.20
2019-02-25T03:22:59.926Z,70.30
2019-02-25T03:25:47.756Z,70.30
2019-02-25T03:28:35.581Z,70.20
2019-02-25T03:31:23.483Z,70.20
2019-02-25T03:34:11.531Z,70.30
2019-02-25T03:36:59.503Z,70.40
2019-02-25T03:39:47.789Z,70.30
2019-02-25T03:42:36.329Z,70.30
2019-02-25T03:45:24.968Z,70.30
2019-02-25T03:48:13.060Z,70.40
2019-02-25T03:51:01.127Z,70.40
2019-02-25T03:53:49.141Z,70.30
2019-02-25T03:56:37.630Z,70.30
2019-02-25T03:59:26.270Z,70.40
2019-02-25T04:02:14.866Z,70.40
2019-02-25T04:05:03.209Z,70.40
2019-02-25T04:07:51.646Z,70.50
2019-02-25T04:10:39.598Z,70.20
2019-02-25T04:13:28.214Z,70.50
2019-02-25T04:16:16.748Z,70.60
2019-02-25T04:19:05.288Z,70.50
2019-02-25T04:21:53.256Z,70.50
2019-02-25T04:24:41.611Z,70.50
2019-02-25T04:27:30.054Z,70.40
2019-02-25T04:30:18.392Z,70.50
2019-02-25T04:33:06.480Z,70.40
2019-02-25T04:35:54.519Z,70.40
2019-02-25T04:38:42.643Z,70.20
2019-02-25T04:41:30.779Z,70.50
2019-02-25T04:44:19.005Z,70.40
2019-02-25T04:47:07.019Z,70.50
2019-02-25T04:49:55.477Z,70.50
2019-02-25T04:52:43.722Z,70.50
2019-02-25T04:55:31.865Z,70.50
2019-02-25T04:58:19.778Z,70.50
2019-02-25T05:01:07.795Z,70.40
2019-02-25T05:03:55.739Z,70.50
2019-02-25T05:06:43.677Z,70.60
2019-02-25T05:09:31.852Z,70.50
2019-02-25T05:12:20.094Z,70.50
2019-02-25T05:15:08.205Z,70.50
2019-02-25T05:17:56.079Z,70.50
2019-02-25T05:20:44.054Z,70.40
2019-02-25T05:23:32.730Z,70.50
2019-02-25T05:26:20.902Z,70.50
2019-02-25T05:29:09.188Z,70.60
2019-02-25T05:31:57.303Z,70.60
2019-02-25T05:34:45.090Z,70.60
2019-02-25T05:37:33.304Z,70.70
2019-02-25T05:40:21.546Z,70.70
2019-02-25T05:43:10.059Z,70.70
2019-02-25T05:45:57.692Z,70.70
2019-02-25T05:48:46.280Z,70.60
2019-02-25T05:51:34.612Z,70.70
2019-02-25T05:54:23.288Z,70.60
2019-02-25T05:57:11.159Z,71.40
2019-02-25T05:59:59.392Z,70.60
2019-02-25T06:02:47.375Z,70.60
2019-02-25T06:05:35.935Z,70.60
2019-02-25T06:08:23.754Z,70.70
2019-02-25T06:11:11.419Z,70.70
2019-02-25T06:14:00.359Z,70.80
2019-02-25T06:16:48.295Z,70.70
2019-02-25T06:19:37.022Z,70.70
2019-02-25T06:22:25.259Z,70.90
2019-02-25T06:25:13.442Z,70.90
2019-02-25T06:28:02.203Z,71.00
2019-02-25T06:30:50.065Z,70.90
2019-02-25T06:33:37.855Z,70.80
2019-02-25T06:36:25.888Z,70.90
2019-02-25T06:39:14.576Z,71.00
2019-02-25T06:42:02.589Z,71.00
2019-02-25T06:44:50.878Z,71.00
2019-02-25T06:47:39.172Z,71.10
2019-02-25T06:50:27.012Z,71.00
2019-02-25T06:53:15.348Z,71.10
2019-02-25T06:56:05.828Z,71.00
2019-02-25T06:58:54.436Z,71.20
2019-02-25T07:01:42.493Z,71.00
2019-02-25T07:04:49.873Z,71.20
2019-02-25T07:11:03.330Z,71.40
2019-02-25T07:14:16.623Z,71.30
2019-02-25T07:17:27.067Z,71.40
2019-02-25T07:23:35.173Z,71.20
2019-02-25T07:26:30.278Z,71.50
2019-02-25T07:32:51.426Z,71.50
2019-02-25T07:35:51.820Z,71.60
2019-02-25T07:38:55.943Z,71.60
2019-02-25T07:48:39.170Z,71.70
2019-02-25T07:51:49.614Z,71.60
2019-02-25T08:00:48.806Z,72.30
2019-02-25T08:10:24.069Z,72.70
2019-02-25T08:19:55.231Z,72.80
2019-02-25T08:26:29.882Z,73.10
2019-02-25T08:29:37.279Z,73.10
2019-02-25T08:32:37.046Z,73.20
2019-02-25T08:35:43.975Z,73.10
2019-02-25T08:42:01.540Z,73.40
2019-02-25T08:45:08.990Z,73.50
2019-02-25T08:51:21.103Z,73.80
2019-02-25T08:54:09.399Z,73.80
2019-02-25T08:56:57.759Z,74.00
2019-02-25T09:02:31.308Z,74.30
2019-02-25T09:05:19.984Z,74.10
2019-02-25T09:08:08.534Z,74.20
2019-02-25T09:10:57.091Z,74.90
2019-02-25T09:13:44.920Z,74.40
2019-02-25T09:16:32.991Z,74.50
2019-02-25T09:19:21.140Z,74.20
2019-02-25T09:22:09.220Z,74.50
2019-02-25T09:24:57.352Z,74.30
2019-02-25T09:27:45.088Z,75.00
2019-02-25T09:30:33.222Z,74.50
2019-02-25T09:33:21.018Z,74.60
2019-02-25T09:36:09.106Z,74.70
2019-02-25T09:38:57.365Z,74.60
2019-02-25T09:41:45.351Z,74.70
2019-02-25T09:44:33.391Z,74.60
2019-02-25T09:47:21.963Z,74.90
2019-02-25T09:50:10.158Z,74.90
2019-02-25T09:52:58.895Z,75.20
2019-02-25T09:55:46.900Z,74.70
2019-02-25T09:58:34.991Z,74.40
2019-02-25T10:01:23.139Z,73.10
2019-02-25T10:04:11.132Z,72.80
2019-02-25T10:07:02.383Z,72.50
2019-02-25T10:09:49.848Z,72.10
2019-02-25T10:12:37.586Z,71.60
2019-02-25T10:15:25.667Z,71.00
2019-02-25T10:18:14.178Z,70.80
2019-02-25T10:21:02.678Z,70.50
2019-02-25T10:23:50.468Z,70.20
2019-02-25T10:26:38.499Z,70.20
2019-02-25T10:29:27.095Z,70.90
2019-02-25T10:32:15.298Z,69.70
2019-02-25T10:35:03.378Z,70.00
2019-02-25T10:37:51.270Z,69.60
2019-02-25T10:40:39.801Z,69.40
2019-02-25T10:43:29.562Z,69.20
2019-02-25T10:46:17.700Z,69.00
2019-02-25T10:49:11.599Z,69.00
2019-02-25T10:51:55.897Z,68.80
2019-02-25T10:54:44.467Z,68.70
2019-02-25T10:57:32.244Z,68.40
2019-02-25T11:03:13.481Z,68.30
2019-02-25T11:06:03.313Z,68.10
2019-02-25T11:11:55.404Z,67.80
2019-02-25T11:14:43.487Z,67.50
2019-02-25T11:17:31.280Z,67.70
2019-02-25T11:20:19.578Z,67.80
2019-02-25T11:23:07.693Z,67.70
2019-02-25T11:25:56.293Z,67.50
2019-02-25T11:28:45.787Z,67.50
2019-02-25T11:31:33.909Z,67.30
2019-02-25T11:34:22.900Z,66.80
2019-02-25T11:37:11.518Z,66.90
2019-02-25T11:40:01.870Z,66.50
2019-02-25T11:42:50.236Z,66.50
2019-02-25T11:45:38.473Z,66.70
2019-02-25T11:48:26.460Z,66.60
2019-02-25T11:51:14.996Z,66.20
2019-02-25T11:54:03.415Z,66.20
2019-02-25T11:56:51.794Z,66.20
2019-02-25T11:59:40.151Z,66.00
2019-02-25T12:02:29.376Z,66.10
2019-02-25T12:05:17.182Z,66.00
2019-02-25T12:08:05.634Z,65.90
2019-02-25T12:10:54.243Z,66.00
2019-02-25T12:13:42.329Z,65.50
2019-02-25T12:16:30.256Z,65.90
2019-02-25T12:19:18.326Z,65.70
2019-02-25T12:22:06.305Z,65.80
2019-02-25T12:24:54.386Z,65.80
2019-02-25T12:27:42.657Z,66.20
2019-02-25T12:30:31.152Z,65.70
2019-02-25T12:33:19.727Z,66.00
2019-02-25T12:36:07.702Z,65.80
2019-02-25T12:38:56.476Z,65.80
2019-02-25T12:41:44.301Z,65.70
2019-02-25T12:44:32.962Z,65.90
2019-02-25T12:47:20.710Z,65.30
2019-02-25T12:50:09.218Z,64.40
2019-02-25T12:52:57.368Z,65.10
2019-02-25T12:55:45.375Z,65.20
2019-02-25T12:58:33.214Z,64.90
2019-02-25T13:01:21.254Z,64.90
2019-02-25T13:04:09.646Z,64.90
2019-02-25T13:06:57.880Z,64.70
2019-02-25T13:09:46.566Z,64.50
2019-02-25T13:12:35.231Z,64.60
2019-02-25T13:15:23.225Z,65.40
2019-02-25T13:18:11.918Z,64.00
2019-02-25T13:21:00.005Z,64.30
2019-02-25T13:23:47.999Z,64.10
2019-02-25T13:26:36.611Z,64.00
2019-02-25T13:29:25.956Z,64.00
2019-02-25T13:32:14.483Z,64.00
2019-02-25T13:35:02.949Z,63.80
2019-02-25T13:37:50.764Z,63.50
2019-02-25T13:40:38.989Z,63.40
2019-02-25T13:43:27.613Z,63.60
2019-02-25T13:46:15.867Z,63.40
2019-02-25T13:49:03.739Z,63.30
2019-02-25T13:51:52.186Z,63.00
2019-02-25T13:54:40.335Z,62.80
2019-02-25T13:57:28.646Z,62.90
2019-02-25T14:00:16.853Z,62.60
2019-02-25T14:03:05.374Z,62.70
2019-02-25T14:05:53.615Z,62.80
2019-02-25T14:08:41.599Z,62.50
2019-02-25T14:11:29.701Z,62.00
2019-02-25T14:14:17.941Z,62.20
2019-02-25T14:17:06.129Z,62.10
2019-02-25T14:19:54.206Z,61.80
2019-02-25T14:22:41.964Z,62.50
2019-02-25T14:25:30.034Z,61.60
2019-02-25T14:28:18.433Z,61.40
2019-02-25T14:31:06.682Z,61.40
2019-02-25T14:33:55.023Z,60.80
2019-02-25T14:36:42.652Z,60.90
2019-02-25T14:39:32.714Z,60.70
2019-02-25T14:42:25.718Z,60.60
2019-02-25T14:45:11.228Z,60.10
2019-02-25T14:47:59.880Z,60.40
2019-02-25T14:50:49.309Z,60.60
2019-02-25T14:53:37.472Z,60.80
2019-02-25T14:56:25.931Z,60.70
2019-02-25T14:59:15.612Z,60.50
2019-02-25T15:02:06.330Z,60.60
2019-02-25T15:04:55.000Z,60.70
2019-02-25T15:07:44.644Z,60.40
2019-02-25T15:10:34.002Z,60.80
2019-02-25T15:13:24.244Z,61.20
2019-02-25T15:16:12.171Z,61.00
2019-02-25T15:19:00.627Z,61.20
2019-02-25T15:21:50.125Z,61.60
2019-02-25T15:24:39.097Z,61.70
2019-02-25T15:27:28.160Z,61.90
2019-02-25T15:30:16.990Z,62.10
2019-02-25T15:33:06.578Z,62.20
2019-02-25T15:35:54.738Z,62.10
2019-02-25T15:38:43.395Z,62.30
2019-02-25T15:41:31.874Z,62.50
2019-02-25T15:44:19.787Z,62.60
2019-02-25T15:47:08.612Z,62.80
2019-02-25T15:50:01.470Z,62.90
2019-02-25T15:52:47.913Z,63.00
2019-02-25T15:55:35.854Z,63.20
2019-02-25T15:58:23.860Z,63.40
2019-02-25T16:01:12.658Z,63.80
2019-02-25T16:04:02.461Z,63.40
2019-02-25T16:06:51.291Z,63.70
2019-02-25T16:09:40.857Z,63.90
2019-02-25T16:12:29.668Z,63.90
2019-02-25T16:15:19.571Z,64.10
2019-02-25T16:18:07.548Z,64.20
2019-02-25T16:20:57.511Z,64.20
2019-02-25T16:23:45.701Z,64.60
2019-02-25T16:26:36.042Z,64.60
2019-02-25T16:29:23.972Z,64.60
2019-02-25T16:32:12.518Z,64.70
2019-02-25T16:35:02.685Z,65.00
2019-02-25T16:37:53.088Z,65.00
2019-02-25T16:40:40.877Z,65.10
2019-02-25T16:43:29.001Z,65.20
2019-02-25T16:46:18.440Z,65.40
2019-02-25T16:49:06.597Z,65.30
2019-02-25T16:51:55.589Z,65.40
2019-02-25T16:54:44.855Z,65.50
2019-02-25T16:57:33.278Z,65.90
2019-02-25T17:00:24.825Z,65.70
2019-02-25T17:06:11.642Z,65.90
2019-02-25T17:09:01.103Z,66.00
2019-02-25T17:11:49.828Z,66.10
2019-02-25T17:14:40.478Z,66.20
2019-02-25T17:17:28.167Z,66.30
2019-02-25T17:20:16.485Z,66.40
2019-02-25T17:23:04.853Z,66.50
2019-02-25T17:25:53.353Z,66.50
2019-02-25T17:28:41.672Z,67.70
2019-02-25T17:31:32.253Z,68.10
2019-02-25T17:34:20.985Z,67.80
2019-02-25T17:42:44.815Z,67.00
2019-02-25T17:45:34.579Z,68.00
2019-02-25T17:48:23.818Z,68.10
2019-02-25T17:51:11.633Z,68.90
2019-02-25T17:54:00.744Z,68.30
2019-02-25T17:56:51.382Z,68.40
2019-02-25T17:59:39.289Z,68.60
2019-02-25T18:02:27.482Z,68.70
2019-02-25T18:05:18.540Z,68.80
2019-02-25T18:10:58.635Z,69.00
2019-02-25T18:13:49.020Z,68.80
2019-02-25T18:16:39.090Z,68.90
2019-02-25T18:19:27.170Z,69.00
2019-02-25T18:22:16.726Z,68.90
2019-02-25T18:25:05.531Z,69.00
2019-02-25T18:30:46.424Z,69.00
2019-02-25T18:33:34.495Z,69.10
2019-02-25T18:36:24.511Z,69.20
2019-02-25T18:39:12.852Z,69.30
2019-02-25T18:42:00.916Z,69.30
2019-02-25T18:44:53.538Z,69.20
2019-02-25T18:50:33.631Z,69.60
2019-02-25T18:53:22.599Z,69.60
2019-02-25T18:56:14.136Z,69.80
2019-02-25T18:59:08.693Z,69.50
2019-02-25T19:01:51.994Z,69.60
2019-02-25T19:04:41.793Z,70.50
2019-02-25T19:07:31.467Z,69.70
2019-02-25T19:10:24.289Z,69.70
2019-02-25T19:13:13.336Z,70.50
2019-02-25T19:16:02.616Z,69.90
2019-02-25T19:18:51.300Z,70.10
2019-02-25T19:21:41.327Z,70.40
2019-02-25T19:24:33.250Z,70.10
2019-02-25T19:27:22.583Z,70.00
2019-02-25T19:30:11.652Z,70.80
2019-02-25T19:33:11.255Z,70.00
2019-02-25T19:35:58.153Z,69.90
2019-02-25T19:38:46.398Z,69.90
2019-02-25T19:41:35.615Z,69.90
2019-02-25T19:44:23.956Z,70.60
2019-02-25T19:47:14.049Z,70.00
2019-02-25T19:50:02.835Z,69.90
2019-02-25T19:52:51.194Z,70.00
2019-02-25T19:55:40.753Z,70.00
2019-02-25T19:58:33.331Z,70.00
2019-02-25T20:01:19.330Z,70.00
2019-02-25T20:06:54.395Z,70.30
2019-02-25T20:09:42.658Z,70.20
2019-02-25T20:12:35.719Z,70.20
2019-02-25T20:15:26.055Z,70.20
2019-02-25T20:21:12.710Z,70.20
2019-02-25T20:24:01.213Z,70.10
2019-02-25T20:26:52.599Z,71.00
2019-02-25T20:29:40.852Z,70.30
2019-02-25T20:32:29.612Z,70.20
2019-02-25T20:35:19.895Z,70.30
2019-02-25T20:38:08.020Z,70.40
2019-02-25T20:40:57.440Z,70.30
2019-02-25T20:43:47.219Z,70.30
2019-02-25T20:46:35.884Z,70.30
2019-02-25T20:49:26.405Z,70.10
2019-02-25T20:52:16.049Z,70.30
2019-02-25T20:55:05.948Z,70.30
2019-02-25T20:57:54.944Z,70.50
2019-02-25T21:00:44.200Z,70.30
2019-02-25T21:03:33.605Z,70.50
2019-02-25T21:09:09.296Z,70.90
2019-02-25T21:11:58.269Z,70.40
2019-02-25T21:14:46.533Z,70.50
2019-02-25T21:17:35.512Z,70.70
2019-02-25T21:20:26.103Z,70.70
2019-02-25T21:23:15.425Z,70.80
2019-02-25T21:26:06.280Z,70.70
2019-02-25T21:28:55.990Z,70.80
2019-02-25T21:31:47.250Z,70.70
2019-02-25T21:34:34.020Z,70.70
2019-02-25T21:37:23.388Z,70.70
2019-02-25T21:40:12.690Z,70.70
2019-02-25T21:43:01.042Z,70.80
2019-02-25T21:48:41.582Z,70.80
2019-02-25T21:54:15.697Z,71.10
2019-02-25T21:57:05.465Z,70.60
2019-02-25T21:59:56.298Z,70.90
2019-02-25T22:02:45.861Z,71.00
2019-02-25T22:05:35.356Z,71.00
2019-02-25T22:08:26.244Z,71.10
2019-02-25T22:11:16.848Z,71.10
2019-02-25T22:14:04.367Z,71.00
2019-02-25T22:16:54.448Z,71.00
2019-02-25T22:19:43.708Z,71.10
2019-02-25T22:22:33.234Z,71.00
2019-02-25T22:25:22.076Z,71.00
2019-02-25T22:28:10.116Z,71.20
2019-02-25T22:30:58.083Z,71.20
2019-02-25T22:33:46.098Z,71.00
2019-02-25T22:36:34.007Z,71.40
2019-02-25T22:39:25.777Z,71.50
2019-02-25T22:42:16.111Z,71.80
2019-02-25T22:45:04.363Z,72.10
2019-02-25T22:47:52.756Z,71.90
2019-02-25T22:50:41.497Z,71.90
2019-02-25T22:53:29.635Z,72.10
2019-02-25T22:56:18.340Z,72.10
2019-02-25T22:59:08.036Z,72.20
2019-02-25T23:01:56.044Z,72.00
2019-02-25T23:04:46.945Z,71.90
2019-02-25T23:07:38.805Z,71.70
2019-02-25T23:10:24.830Z,71.80
2019-02-25T23:13:13.147Z,72.40
2019-02-25T23:16:01.656Z,71.70
2019-02-25T23:18:49.492Z,71.70
2019-02-25T23:21:38.379Z,71.80
2019-02-25T23:24:30.033Z,71.60
2019-02-25T23:27:17.162Z,71.60
2019-02-25T23:30:08.594Z,71.60
2019-02-25T23:32:56.829Z,71.50
2019-02-25T23:35:46.582Z,71.50
2019-02-25T23:38:34.490Z,71.50
2019-02-25T23:41:22.835Z,71.50
2019-02-25T23:44:13.233Z,71.60
2019-02-25T23:47:02.458Z,71.60
2019-02-25T23:49:52.351Z,71.30
2019-02-25T23:52:40.901Z,71.50
2019-02-25T23:55:29.850Z,71.60
2019-02-25T23:58:20.215Z,71.60
